Washington, DC (20529)

10:31 AM EDT on October 01, 2014 (GMT -0400)
Logan Circle | Change Station
CLOSE
Current Station
Personal Weather Station
Location: Washington, DC
Elevation: 108 ft
Nearby Weather Stations

Elev 108 ft 38.91 °N, 77.03 °W | Updated 4 seconds ago

Overcast
Overcast
69.1 °F
Feels Like 69.1 °F
N
3.4
Wind Variable Wind from NNE
Gusts 4.9 mph

Today
High -- | Low -- °F
--% Chance of Precip.
Yesterday
High -- | Low -- °F
Precip. -- in
7:04 AM 6:50 PM
Waxing Crescent, 48% visible
Pressure 30.05 in
Visibility 10.0 miles
Clouds Mostly Cloudy 1500 ft
Overcast 3700 ft
Dew Point 63 °F
Humidity 80%
Rainfall 0.02 in
Snow Depth Not available.
UV 1 out of 12
Pollen 2.90 out of 12
Air Quality Not available.
Flu Activity Not available.
SPECI KDCA 011423Z 05005KT 10SM BKN015 OVC037 21/16 A3005 RMK AO2 BINOVC

More Conditions Fewer Conditions

Pressure 30.05 in
Visibility 10.0 miles
Clouds Mostly Cloudy 1500 ft
Overcast 3700 ft
Dew Point 63 °F
Humidity 80%
Rainfall 0.02 in
Snow Depth Not available.
UV 1 out of 12
Pollen 2.90 out of 12
Air Quality Not available.
Flu Activity Not available.
SPECI KDCA 011423Z 05005KT 10SM BKN015 OVC037 21/16 A3005 RMK AO2 BINOVC

More Conditions Fewer Conditions

10-Day Weather Forecast

Almanac

Astronomy

Oct. 01, 2014 Rise Set
Actual Time 7:04 AM EDT 6:50 PM EDT
Civil Twilight 6:37 AM EDT 7:17 PM EDT
Nautical Twilight 6:06 AM EDT 7:48 PM EDT
Astronomical Twilight 5:35 AM EDT 8:19 PM EDT
Moon 2:00 PM EDT No Moon Set
Length of Visible Light 12h 39m
Length of Day
11h 46m
Tomorrow will be 2m 31s shorter.
Waxing Crescent, 48% of the Moon is Illuminated
Today
Waxing Crescent
Oct 1
First Quarter
Oct 8
Full
Oct 15
Last Quarter
Oct 23
New

Today's Extremes

State Highs State Lows

Community

WunderPhotos

Upload Photos

1,757,960 photos uploaded!

Nearby

Snow Depth

Station Depth Elevation
No new snow has been reported.

Earthquake Activity

City Distance Mag. Time & Date
No recent earthquake activity has been reported nearby.
Minimum magnitude displayed is 2.5.

Coastal Water Temperatures

Place Temperature
Washington, DC 71.1 °F
Baltimore, MD 73.9 °F
Solomons Island, MD 72.0 °F

Nearby Weather Stations